sensor_id;sensor_type;location;lat;lon;timestamp;P1;durP1;ratioP1;P2;durP2;ratioP2
54545;SDS011;40444;45.184;9.850;2023-04-03T00:01:19;7.38;;;6.18;;
54545;SDS011;40444;45.184;9.850;2023-04-03T00:03:48;6.85;;;5.32;;
54545;SDS011;40444;45.184;9.850;2023-04-03T00:06:17;8.52;;;6.20;;
54545;SDS011;40444;45.184;9.850;2023-04-03T00:08:46;6.53;;;4.95;;
54545;SDS011;40444;45.184;9.850;2023-04-03T00:11:14;8.48;;;5.75;;
54545;SDS011;40444;45.184;9.850;2023-04-03T00:13:42;7.10;;;5.82;;
54545;SDS011;40444;45.184;9.850;2023-04-03T00:16:12;7.35;;;5.85;;
54545;SDS011;40444;45.184;9.850;2023-04-03T00:18:41;7.80;;;6.45;;
54545;SDS011;40444;45.184;9.850;2023-04-03T00:21:09;10.25;;;6.07;;
54545;SDS011;40444;45.184;9.850;2023-04-03T00:23:40;7.95;;;6.50;;
54545;SDS011;40444;45.184;9.850;2023-04-03T00:26:08;6.32;;;5.60;;
54545;SDS011;40444;45.184;9.850;2023-04-03T00:28:39;8.23;;;5.95;;
54545;SDS011;40444;45.184;9.850;2023-04-03T00:31:08;7.25;;;6.13;;
54545;SDS011;40444;45.184;9.850;2023-04-03T00:33:37;7.55;;;6.38;;
54545;SDS011;40444;45.184;9.850;2023-04-03T00:36:07;7.53;;;6.28;;
54545;SDS011;40444;45.184;9.850;2023-04-03T00:38:37;8.07;;;6.25;;
54545;SDS011;40444;45.184;9.850;2023-04-03T00:41:06;7.30;;;6.30;;
54545;SDS011;40444;45.184;9.850;2023-04-03T00:43:34;10.88;;;6.75;;
54545;SDS011;40444;45.184;9.850;2023-04-03T00:46:03;9.43;;;6.97;;
54545;SDS011;40444;45.184;9.850;2023-04-03T00:48:36;7.50;;;6.55;;
54545;SDS011;40444;45.184;9.850;2023-04-03T00:51:14;9.80;;;6.82;;
54545;SDS011;40444;45.184;9.850;2023-04-03T00:53:49;8.80;;;6.07;;
54545;SDS011;40444;45.184;9.850;2023-04-03T00:56:23;10.80;;;6.53;;
54545;SDS011;40444;45.184;9.850;2023-04-03T00:58:58;7.82;;;6.72;;
54545;SDS011;40444;45.184;9.850;2023-04-03T01:01:29;9.55;;;6.32;;
54545;SDS011;40444;45.184;9.850;2023-04-03T01:03:59;10.40;;;6.40;;
54545;SDS011;40444;45.184;9.850;2023-04-03T01:06:29;7.20;;;6.20;;
54545;SDS011;40444;45.184;9.850;2023-04-03T01:09:08;12.25;;;7.28;;
54545;SDS011;40444;45.184;9.850;2023-04-03T01:11:36;9.27;;;6.35;;
54545;SDS011;40444;45.184;9.850;2023-04-03T01:14:05;8.77;;;6.40;;
54545;SDS011;40444;45.184;9.850;2023-04-03T01:16:34;7.40;;;6.50;;
54545;SDS011;40444;45.184;9.850;2023-04-03T01:19:02;9.00;;;7.45;;
54545;SDS011;40444;45.184;9.850;2023-04-03T01:24:42;9.77;;;7.68;;
54545;SDS011;40444;45.184;9.850;2023-04-03T01:27:11;10.98;;;7.82;;
54545;SDS011;40444;45.184;9.850;2023-04-03T01:29:40;9.23;;;7.47;;
54545;SDS011;40444;45.184;9.850;2023-04-03T01:32:11;11.07;;;7.47;;
54545;SDS011;40444;45.184;9.850;2023-04-03T01:34:41;9.48;;;7.07;;
54545;SDS011;40444;45.184;9.850;2023-04-03T01:37:09;9.25;;;6.80;;
54545;SDS011;40444;45.184;9.850;2023-04-03T01:39:38;12.30;;;7.53;;
54545;SDS011;40444;45.184;9.850;2023-04-03T01:42:06;9.55;;;7.65;;
54545;SDS011;40444;45.184;9.850;2023-04-03T01:44:38;9.52;;;7.90;;
54545;SDS011;40444;45.184;9.850;2023-04-03T01:47:07;9.00;;;7.47;;
54545;SDS011;40444;45.184;9.850;2023-04-03T01:49:37;8.85;;;7.22;;
54545;SDS011;40444;45.184;9.850;2023-04-03T01:52:06;10.45;;;7.70;;
54545;SDS011;40444;45.184;9.850;2023-04-03T01:54:34;11.10;;;7.80;;
54545;SDS011;40444;45.184;9.850;2023-04-03T01:57:03;9.13;;;7.65;;
54545;SDS011;40444;45.184;9.850;2023-04-03T01:59:31;10.70;;;7.70;;
54545;SDS011;40444;45.184;9.850;2023-04-03T02:01:59;9.55;;;7.50;;
54545;SDS011;40444;45.184;9.850;2023-04-03T02:04:28;9.00;;;7.68;;
54545;SDS011;40444;45.184;9.850;2023-04-03T02:06:56;9.60;;;7.60;;
54545;SDS011;40444;45.184;9.850;2023-04-03T02:09:25;10.02;;;8.00;;
54545;SDS011;40444;45.184;9.850;2023-04-03T02:11:54;11.20;;;7.50;;
54545;SDS011;40444;45.184;9.850;2023-04-03T02:14:23;9.80;;;7.75;;
54545;SDS011;40444;45.184;9.850;2023-04-03T02:16:51;9.70;;;8.32;;
54545;SDS011;40444;45.184;9.850;2023-04-03T02:19:22;8.75;;;7.65;;
54545;SDS011;40444;45.184;9.850;2023-04-03T02:21:51;9.27;;;7.78;;
54545;SDS011;40444;45.184;9.850;2023-04-03T02:24:19;12.13;;;8.45;;
54545;SDS011;40444;45.184;9.850;2023-04-03T02:26:47;7.57;;;6.75;;
54545;SDS011;40444;45.184;9.850;2023-04-03T02:29:16;10.63;;;8.55;;
54545;SDS011;40444;45.184;9.850;2023-04-03T02:31:44;12.40;;;9.68;;
54545;SDS011;40444;45.184;9.850;2023-04-03T02:34:12;10.55;;;8.80;;
54545;SDS011;40444;45.184;9.850;2023-04-03T02:36:40;12.05;;;9.40;;
54545;SDS011;40444;45.184;9.850;2023-04-03T02:39:10;11.82;;;9.13;;
54545;SDS011;40444;45.184;9.850;2023-04-03T02:41:39;10.55;;;8.48;;
54545;SDS011;40444;45.184;9.850;2023-04-03T02:44:17;9.63;;;7.55;;
54545;SDS011;40444;45.184;9.850;2023-04-03T02:46:46;9.43;;;6.88;;
54545;SDS011;40444;45.184;9.850;2023-04-03T02:49:14;13.48;;;8.02;;
54545;SDS011;40444;45.184;9.850;2023-04-03T02:51:43;11.70;;;8.18;;
54545;SDS011;40444;45.184;9.850;2023-04-03T02:54:11;12.90;;;7.40;;
54545;SDS011;40444;45.184;9.850;2023-04-03T02:56:44;8.73;;;7.60;;
54545;SDS011;40444;45.184;9.850;2023-04-03T02:59:12;10.27;;;8.30;;
54545;SDS011;40444;45.184;9.850;2023-04-03T03:01:41;10.13;;;7.60;;
54545;SDS011;40444;45.184;9.850;2023-04-03T03:04:10;9.93;;;8.20;;
54545;SDS011;40444;45.184;9.850;2023-04-03T03:06:38;11.75;;;8.32;;
54545;SDS011;40444;45.184;9.850;2023-04-03T03:09:09;9.73;;;8.20;;
54545;SDS011;40444;45.184;9.850;2023-04-03T03:11:37;9.98;;;7.78;;
54545;SDS011;40444;45.184;9.850;2023-04-03T03:14:06;13.77;;;8.52;;
54545;SDS011;40444;45.184;9.850;2023-04-03T03:16:34;9.38;;;8.00;;
54545;SDS011;40444;45.184;9.850;2023-04-03T03:19:02;11.80;;;8.48;;
54545;SDS011;40444;45.184;9.850;2023-04-03T03:21:31;10.48;;;8.05;;
54545;SDS011;40444;45.184;9.850;2023-04-03T03:24:01;10.68;;;7.43;;
54545;SDS011;40444;45.184;9.850;2023-04-03T03:26:30;11.18;;;8.32;;
54545;SDS011;40444;45.184;9.850;2023-04-03T03:28:58;7.90;;;6.90;;
54545;SDS011;40444;45.184;9.850;2023-04-03T03:31:27;9.48;;;6.57;;
54545;SDS011;40444;45.184;9.850;2023-04-03T03:33:57;12.75;;;7.60;;
54545;SDS011;40444;45.184;9.850;2023-04-03T03:36:25;11.38;;;7.57;;
54545;SDS011;40444;45.184;9.850;2023-04-03T03:38:53;9.52;;;8.10;;
54545;SDS011;40444;45.184;9.850;2023-04-03T03:41:23;10.55;;;8.32;;
54545;SDS011;40444;45.184;9.850;2023-04-03T03:43:52;11.20;;;8.05;;
54545;SDS011;40444;45.184;9.850;2023-04-03T03:46:20;11.07;;;7.70;;
54545;SDS011;40444;45.184;9.850;2023-04-03T03:48:49;9.55;;;7.53;;
54545;SDS011;40444;45.184;9.850;2023-04-03T03:51:17;9.48;;;7.75;;
54545;SDS011;40444;45.184;9.850;2023-04-03T03:53:46;9.95;;;7.68;;
54545;SDS011;40444;45.184;9.850;2023-04-03T03:56:18;9.73;;;7.60;;
54545;SDS011;40444;45.184;9.850;2023-04-03T03:58:47;10.02;;;7.47;;
54545;SDS011;40444;45.184;9.850;2023-04-03T04:01:17;9.40;;;7.40;;
54545;SDS011;40444;45.184;9.850;2023-04-03T04:03:48;9.38;;;7.05;;
54545;SDS011;40444;45.184;9.850;2023-04-03T04:06:21;12.82;;;7.75;;
54545;SDS011;40444;45.184;9.850;2023-04-03T04:08:53;12.68;;;8.73;;
54545;SDS011;40444;45.184;9.850;2023-04-03T04:11:21;12.70;;;8.65;;
54545;SDS011;40444;45.184;9.850;2023-04-03T04:13:51;11.25;;;8.85;;
54545;SDS011;40444;45.184;9.850;2023-04-03T04:16:24;10.82;;;8.85;;
54545;SDS011;40444;45.184;9.850;2023-04-03T04:18:53;12.60;;;9.27;;
54545;SDS011;40444;45.184;9.850;2023-04-03T04:21:22;11.95;;;8.75;;
54545;SDS011;40444;45.184;9.850;2023-04-03T04:23:52;11.55;;;9.13;;
54545;SDS011;40444;45.184;9.850;2023-04-03T04:26:21;9.90;;;8.43;;
54545;SDS011;40444;45.184;9.850;2023-04-03T04:28:49;10.95;;;8.65;;
54545;SDS011;40444;45.184;9.850;2023-04-03T04:31:19;10.88;;;8.27;;
54545;SDS011;40444;45.184;9.850;2023-04-03T04:33:48;12.10;;;8.63;;
54545;SDS011;40444;45.184;9.850;2023-04-03T04:36:18;10.07;;;7.68;;
